createdAt,value
2019-05-09T00:02:43.603Z,101190.98
2019-05-09T00:06:45.509Z,101191.08
2019-05-09T00:10:47.669Z,101193.26
2019-05-09T00:14:51.314Z,101195.23
2019-05-09T00:18:54.264Z,101200.48
2019-05-09T00:22:56.777Z,101207.84
2019-05-09T00:26:58.936Z,101206.19
2019-05-09T00:31:05.693Z,101205.63
2019-05-09T00:35:14.280Z,101218.34
2019-05-09T00:39:16.303Z,101211.09
2019-05-09T00:43:18.292Z,101218.20
2019-05-09T00:47:26.534Z,101223.56
2019-05-09T00:51:28.596Z,101225.42
2019-05-09T00:55:30.493Z,101229.02
2019-05-09T00:59:33.248Z,101238.82
2019-05-09T01:03:35.338Z,101231.61
2019-05-09T01:07:37.200Z,101236.65
2019-05-09T01:11:39.350Z,101233.85
2019-05-09T01:15:41.176Z,101229.98
2019-05-09T01:19:43.326Z,101230.13
2019-05-09T01:23:45.290Z,101230.33
2019-05-09T01:27:47.256Z,101226.49
2019-05-09T01:31:49.076Z,101222.17
2019-05-09T01:35:50.960Z,101230.53
2019-05-09T01:39:53.419Z,101238.95
2019-05-09T01:43:55.449Z,101237.84
2019-05-09T01:47:57.406Z,101237.84
2019-05-09T01:52:03.388Z,101234.77
2019-05-09T01:56:05.302Z,101240.13
2019-05-09T02:00:07.801Z,101235.89
2019-05-09T02:04:09.677Z,101229.53
2019-05-09T02:08:14.078Z,101229.53
2019-05-09T02:12:15.120Z,101222.83
2019-05-09T02:16:54.205Z,101225.69
2019-05-09T02:20:56.041Z,101229.72
2019-05-09T02:24:58.012Z,101224.55
2019-05-09T02:28:59.923Z,101223.17
2019-05-09T02:33:04.805Z,101228.56
2019-05-09T02:37:05.505Z,101230.16
2019-05-09T02:41:08.641Z,101227.42
2019-05-09T02:45:11.419Z,101226.06
2019-05-09T02:49:13.304Z,101230.92
2019-05-09T02:53:15.420Z,101235.30
2019-05-09T02:57:18.502Z,101239.97
2019-05-09T03:01:33.968Z,101238.59
2019-05-09T03:05:38.372Z,101242.87
2019-05-09T03:09:39.647Z,101240.89
2019-05-09T03:13:41.620Z,101239.55
2019-05-09T03:17:43.622Z,101242.81
2019-05-09T03:21:58.659Z,101243.41
2019-05-09T03:26:00.556Z,101245.07
2019-05-09T03:30:04.978Z,101248.77
2019-05-09T03:34:09.394Z,101252.15
2019-05-09T03:38:10.823Z,101248.91
2019-05-09T03:42:12.674Z,101254.41
2019-05-09T03:46:21.400Z,101247.20
2019-05-09T03:50:23.206Z,101257.05
2019-05-09T03:54:28.259Z,101253.81
2019-05-09T03:58:30.312Z,101260.09
2019-05-09T04:02:32.705Z,101260.87
2019-05-09T04:06:34.804Z,101257.25
2019-05-09T04:10:38.535Z,101257.02
2019-05-09T04:14:40.202Z,101259.08
2019-05-09T04:18:43.169Z,101260.09
2019-05-09T04:22:45.378Z,101262.14
2019-05-09T04:27:12.475Z,101264.05
2019-05-09T04:31:14.418Z,101255.86
2019-05-09T04:35:17.621Z,101259.02
2019-05-09T04:39:23.552Z,101252.00
2019-05-09T04:43:34.609Z,101248.75
2019-05-09T04:47:27.794Z,101251.83
2019-05-09T04:51:29.857Z,101249.70
2019-05-09T04:55:33.332Z,101254.39
2019-05-09T04:59:37.398Z,101257.99
2019-05-09T05:03:40.031Z,101260.03
2019-05-09T05:07:42.984Z,101258.25
2019-05-09T05:11:47.137Z,101245.98
2019-05-09T05:15:48.726Z,101243.43
2019-05-09T05:19:51.228Z,101253.01
2019-05-09T05:24:11.069Z,101250.50
2019-05-09T05:28:12.906Z,101258.33
2019-05-09T05:32:24.293Z,101265.50
2019-05-09T05:36:27.950Z,101254.37
2019-05-09T05:40:33.351Z,101262.06
2019-05-09T05:44:33.562Z,101260.18
2019-05-09T05:48:38.144Z,101262.55
2019-05-09T05:52:39.744Z,101271.39
2019-05-09T05:56:41.813Z,101273.38
2019-05-09T06:00:43.651Z,101275.86
2019-05-09T06:04:45.528Z,101274.50
2019-05-09T06:08:48.489Z,101280.05
2019-05-09T06:12:50.596Z,101273.86
2019-05-09T06:16:52.710Z,101278.38
2019-05-09T06:20:54.575Z,101280.09
2019-05-09T06:24:58.242Z,101287.99
2019-05-09T06:28:59.984Z,101283.70
2019-05-09T06:33:04.888Z,101283.31
2019-05-09T06:37:08.611Z,101288.92
2019-05-09T06:41:12.087Z,101289.45
2019-05-09T06:45:31.343Z,101282.06
2019-05-09T06:49:37.790Z,101295.84
2019-05-09T06:53:39.862Z,101292.09
2019-05-09T06:57:43.162Z,101289.12
2019-05-09T07:01:59.843Z,101294.92
2019-05-09T07:06:19.223Z,101284.16
2019-05-09T07:10:21.194Z,101294.55
2019-05-09T07:14:33.310Z,101294.66
2019-05-09T07:18:33.864Z,101297.05
2019-05-09T07:22:39.424Z,101285.28
2019-05-09T07:26:41.536Z,101293.80
2019-05-09T07:31:11.591Z,101288.64
2019-05-09T07:35:12.943Z,101289.30
2019-05-09T07:39:14.758Z,101300.94
2019-05-09T07:43:18.005Z,101304.16
2019-05-09T07:47:20.131Z,101302.42
2019-05-09T07:51:22.508Z,101302.70
2019-05-09T07:55:24.344Z,101312.39
2019-05-09T07:59:27.468Z,101308.48
2019-05-09T08:03:29.461Z,101311.34
2019-05-09T08:07:33.208Z,101311.98
2019-05-09T08:11:37.479Z,101301.61
2019-05-09T08:15:38.679Z,101298.09
2019-05-09T08:19:40.494Z,101298.81
2019-05-09T08:23:42.500Z,101289.27
2019-05-09T08:27:44.671Z,101287.45
2019-05-09T08:31:48.580Z,101294.84
2019-05-09T08:35:52.623Z,101284.09
2019-05-09T08:39:54.151Z,101288.11
2019-05-09T08:43:57.546Z,101293.52
2019-05-09T08:47:59.745Z,101280.87
2019-05-09T08:52:13.037Z,101275.70
2019-05-09T08:56:12.929Z,101282.94
2019-05-09T09:00:14.441Z,101275.98
2019-05-09T09:04:18.815Z,101276.92
2019-05-09T09:08:20.159Z,101274.66
2019-05-09T09:12:30.285Z,101276.48
2019-05-09T09:16:28.170Z,101266.30
2019-05-09T09:20:29.540Z,101256.64
2019-05-09T09:24:31.627Z,101262.41
2019-05-09T09:28:33.506Z,101258.27
2019-05-09T09:32:38.526Z,101259.09
2019-05-09T09:36:39.605Z,101261.30
2019-05-09T09:40:41.470Z,101266.93
2019-05-09T09:44:43.864Z,101258.19
2019-05-09T09:48:48.019Z,101244.45
2019-05-09T09:52:49.760Z,101249.70
2019-05-09T09:56:53.452Z,101241.15
2019-05-09T10:01:08.989Z,101241.25
2019-05-09T10:05:11.331Z,101233.56
2019-05-09T10:09:13.357Z,101236.45
2019-05-09T10:13:15.273Z,101232.22
2019-05-09T10:17:42.368Z,101225.64
2019-05-09T10:21:48.761Z,101210.72
2019-05-09T10:25:51.163Z,101224.80
2019-05-09T10:29:52.989Z,101217.21
2019-05-09T10:33:54.986Z,101225.24
2019-05-09T10:37:58.906Z,101223.97
2019-05-09T10:42:02.325Z,101229.77
2019-05-09T10:46:15.496Z,101225.53
2019-05-09T10:50:18.352Z,101212.98
2019-05-09T10:54:20.599Z,101207.89
2019-05-09T10:58:23.845Z,101205.37
2019-05-09T11:02:27.925Z,101202.95
2019-05-09T11:06:29.467Z,101202.31
2019-05-09T11:10:33.043Z,101196.02
2019-05-09T11:14:37.518Z,101196.10
2019-05-09T11:18:38.936Z,101181.20
2019-05-09T11:22:40.993Z,101177.77
2019-05-09T11:26:42.928Z,101176.56
2019-05-09T11:30:44.830Z,101176.68
2019-05-09T11:34:48.651Z,101170.95
2019-05-09T11:38:51.091Z,101151.67
2019-05-09T11:42:53.011Z,101159.50
2019-05-09T11:46:55.216Z,101158.32
2019-05-09T11:50:58.220Z,101153.59
2019-05-09T11:55:00.809Z,101160.44
2019-05-09T11:59:02.668Z,101155.35
2019-05-09T12:03:04.551Z,101150.11
2019-05-09T12:07:07.928Z,101153.81
2019-05-09T12:11:10.110Z,101143.58
2019-05-09T12:15:12.157Z,101134.41
2019-05-09T12:19:14.110Z,101130.80
2019-05-09T12:23:19.636Z,101123.07
2019-05-09T12:27:19.803Z,101122.53
2019-05-09T12:31:22.847Z,101116.41
2019-05-09T12:35:24.837Z,101121.81
2019-05-09T12:39:27.499Z,101104.34
2019-05-09T12:43:29.876Z,101103.14
2019-05-09T12:47:31.882Z,101104.36
2019-05-09T12:51:33.875Z,101088.81
2019-05-09T12:55:38.279Z,101084.82
2019-05-09T12:59:48.450Z,101087.05
2019-05-09T13:03:43.054Z,101086.38
2019-05-09T13:07:44.892Z,101081.81
2019-05-09T13:11:48.252Z,101072.44
2019-05-09T13:16:11.991Z,101076.70
2019-05-09T13:20:14.413Z,101069.41
2019-05-09T13:24:19.643Z,101071.59
2019-05-09T13:28:20.288Z,101075.33
2019-05-09T13:32:22.524Z,101061.90
2019-05-09T13:36:28.131Z,101053.80
2019-05-09T13:40:29.614Z,101062.38
2019-05-09T13:44:31.476Z,101057.98
2019-05-09T13:48:57.253Z,101057.63
2019-05-09T13:52:38.735Z,101038.11
2019-05-09T13:56:40.650Z,101029.81
2019-05-09T14:00:55.875Z,101027.17
2019-05-09T14:04:48.614Z,101019.30
2019-05-09T14:08:51.137Z,101027.58
2019-05-09T14:13:05.829Z,101016.94
2019-05-09T14:16:59.010Z,101010.28
2019-05-09T14:21:00.221Z,101011.22
2019-05-09T14:29:50.259Z,100993.63
2019-05-09T14:34:02.881Z,100979.00
2019-05-09T14:38:11.802Z,100975.36
2019-05-09T14:42:13.759Z,100969.55
2019-05-09T14:46:18.238Z,100958.06
2019-05-09T14:50:19.543Z,100957.35
2019-05-09T14:54:21.793Z,100959.19
2019-05-09T14:58:23.667Z,100950.20
2019-05-09T15:02:25.537Z,100949.12
2019-05-09T15:06:28.256Z,100933.15
2019-05-09T15:10:30.373Z,100949.89
2019-05-09T15:14:32.333Z,100943.50
2019-05-09T15:18:34.983Z,100942.59
2019-05-09T15:22:38.765Z,100927.03
2019-05-09T15:26:40.544Z,100924.30
2019-05-09T15:30:42.363Z,100914.50
2019-05-09T15:34:44.257Z,100906.11
2019-05-09T15:38:48.458Z,100905.92
2019-05-09T15:42:50.089Z,100912.43
2019-05-09T15:47:07.564Z,100912.61
2019-05-09T15:51:09.759Z,100914.64
2019-05-09T15:55:12.513Z,100911.92
2019-05-09T15:59:14.408Z,100908.84
2019-05-09T16:03:18.442Z,100903.55
2019-05-09T16:07:20.235Z,100908.31
2019-05-09T16:11:22.089Z,100916.05
2019-05-09T16:15:28.164Z,100902.53
2019-05-09T16:19:28.941Z,100911.39
2019-05-09T16:23:30.851Z,100899.75
2019-05-09T16:27:34.265Z,100882.53
2019-05-09T16:31:38.794Z,100897.08
2019-05-09T16:35:39.905Z,100887.52
2019-05-09T16:39:42.105Z,100883.44
2019-05-09T16:43:43.935Z,100875.69
2019-05-09T16:47:48.366Z,100876.59
2019-05-09T16:51:49.807Z,100873.90
2019-05-09T16:55:51.658Z,100859.31
2019-05-09T16:59:53.491Z,100853.03
2019-05-09T17:03:57.455Z,100852.95
2019-05-09T17:07:58.960Z,100845.38
2019-05-09T17:12:00.982Z,100847.03
2019-05-09T17:16:02.856Z,100849.64
2019-05-09T17:20:05.204Z,100844.89
2019-05-09T17:24:09.703Z,100844.28
2019-05-09T17:28:11.725Z,100841.48
2019-05-09T17:32:13.709Z,100828.38
2019-05-09T17:36:18.037Z,100834.66
2019-05-09T17:40:19.382Z,100836.31
2019-05-09T17:44:21.378Z,100820.08
2019-05-09T17:48:25.053Z,100821.50
2019-05-09T17:52:26.972Z,100815.16
2019-05-09T17:56:28.811Z,100815.70
2019-05-09T18:00:31.116Z,100802.50
2019-05-09T18:04:33.086Z,100804.01
2019-05-09T18:08:37.563Z,100804.69
2019-05-09T18:12:38.784Z,100808.83
2019-05-09T18:16:40.745Z,100820.72
2019-05-09T18:20:43.225Z,100815.48
2019-05-09T18:24:45.235Z,100811.92
2019-05-09T18:28:47.929Z,100816.05
2019-05-09T18:33:07.541Z,100810.27
2019-05-09T18:37:09.516Z,100817.92
2019-05-09T18:41:11.447Z,100812.79
2019-05-09T18:45:17.375Z,100803.65
2019-05-09T18:49:19.638Z,100805.72
2019-05-09T18:53:22.325Z,100807.54
2019-05-09T18:57:24.305Z,100804.71
2019-05-09T19:01:26.159Z,100809.67
2019-05-09T19:05:28.091Z,100808.05
2019-05-09T19:09:29.954Z,100803.03
2019-05-09T19:13:31.919Z,100806.75
2019-05-09T19:18:02.016Z,100807.04
2019-05-09T19:22:21.041Z,100802.14
2019-05-09T19:26:27.612Z,100802.95
2019-05-09T19:30:29.523Z,100806.14
2019-05-09T19:34:31.391Z,100797.77
2019-05-09T19:38:33.327Z,100803.89
2019-05-09T19:42:35.253Z,100797.11
2019-05-09T19:46:37.260Z,100794.20
2019-05-09T19:50:39.693Z,100788.78
2019-05-09T19:54:41.559Z,100785.53
2019-05-09T19:58:43.387Z,100778.10
2019-05-09T20:02:45.336Z,100775.13
2019-05-09T20:06:47.266Z,100771.84
2019-05-09T20:11:23.286Z,100764.69
2019-05-09T20:15:25.795Z,100762.78
2019-05-09T20:19:27.754Z,100765.59
2019-05-09T20:23:29.616Z,100762.84
2019-05-09T20:27:31.564Z,100765.61
2019-05-09T20:31:33.405Z,100763.70
2019-05-09T20:35:35.307Z,100757.77
2019-05-09T20:39:37.422Z,100748.42
2019-05-09T20:43:39.481Z,100754.03
2019-05-09T20:47:41.488Z,100748.36
2019-05-09T20:51:43.834Z,100746.89
2019-05-09T20:55:45.845Z,100742.42
2019-05-09T20:59:47.885Z,100743.77
2019-05-09T21:03:59.420Z,100749.31
2019-05-09T21:07:53.676Z,100754.41
2019-05-09T21:11:55.803Z,100751.12
2019-05-09T21:15:57.906Z,100749.31
2019-05-09T21:19:59.948Z,100754.12
2019-05-09T21:24:02.027Z,100747.23
2019-05-09T21:28:05.341Z,100745.89
2019-05-09T21:32:08.558Z,100748.09
2019-05-09T21:36:10.477Z,100744.32
2019-05-09T21:40:12.972Z,100744.91
2019-05-09T21:44:15.059Z,100734.84
2019-05-09T21:48:17.173Z,100731.86
2019-05-09T21:52:19.631Z,100726.87
2019-05-09T21:56:21.680Z,100728.78
2019-05-09T22:00:29.236Z,100710.64
2019-05-09T22:04:32.438Z,100719.94
2019-05-09T22:08:34.252Z,100716.17
2019-05-09T22:12:36.215Z,100710.79
2019-05-09T22:16:38.027Z,100710.21
2019-05-09T22:20:39.933Z,100711.27
2019-05-09T22:24:41.749Z,100705.81
2019-05-09T22:28:43.620Z,100708.28
2019-05-09T22:32:45.550Z,100702.83
2019-05-09T22:36:47.490Z,100704.63
2019-05-09T22:40:49.597Z,100706.81
2019-05-09T22:44:51.471Z,100710.28
2019-05-09T22:48:53.283Z,100703.55
2019-05-09T22:52:55.522Z,100694.45
2019-05-09T22:56:57.351Z,100695.63
2019-05-09T23:00:59.242Z,100684.94
2019-05-09T23:05:01.103Z,100694.17
2019-05-09T23:09:04.494Z,100692.94
2019-05-09T23:13:06.378Z,100688.75
2019-05-09T23:17:09.520Z,100671.80
2019-05-09T23:21:12.377Z,100671.02
2019-05-09T23:25:14.412Z,100667.52
2019-05-09T23:29:16.411Z,100665.02
2019-05-09T23:33:18.371Z,100659.92
2019-05-09T23:37:20.159Z,100658.86
2019-05-09T23:41:22.031Z,100656.58
2019-05-09T23:45:23.840Z,100650.13
2019-05-09T23:49:25.713Z,100651.55
2019-05-09T23:53:36.019Z,100645.12
2019-05-09T23:57:55.473Z,100637.67
